createdAt,value
2022-10-26T00:01:16.470Z,68.60
2022-10-26T00:03:44.548Z,68.60
2022-10-26T00:06:21.361Z,68.50
2022-10-26T00:08:49.905Z,68.70
2022-10-26T00:11:17.012Z,68.50
2022-10-26T00:13:48.582Z,68.20
2022-10-26T00:16:22.536Z,68.30
2022-10-26T00:18:50.800Z,68.40
2022-10-26T00:21:18.249Z,67.80
2022-10-26T00:23:45.046Z,68.00
2022-10-26T00:26:11.787Z,68.10
2022-10-26T00:28:38.428Z,68.10
2022-10-26T00:31:08.601Z,68.30
2022-10-26T00:33:35.459Z,68.20
2022-10-26T00:36:06.596Z,68.00
2022-10-26T00:38:35.247Z,68.20
2022-10-26T00:41:01.807Z,68.20
2022-10-26T00:43:28.323Z,68.10
2022-10-26T00:45:57.104Z,68.00
2022-10-26T00:48:28.603Z,68.00
2022-10-26T00:50:58.524Z,68.30
2022-10-26T00:53:25.349Z,67.90
2022-10-26T00:55:53.973Z,67.90
2022-10-26T00:58:22.837Z,67.70
2022-10-26T01:00:50.765Z,67.70
2022-10-26T01:03:18.325Z,67.70
2022-10-26T01:05:47.698Z,67.70
2022-10-26T01:08:16.870Z,67.80
2022-10-26T01:10:43.851Z,67.70
2022-10-26T01:13:11.343Z,67.70
2022-10-26T01:15:53.116Z,67.70
2022-10-26T01:18:48.503Z,67.70
2022-10-26T01:21:37.294Z,67.80
2022-10-26T01:24:10.226Z,67.30
2022-10-26T01:29:37.440Z,67.60
2022-10-26T01:32:22.802Z,67.40
2022-10-26T01:35:36.303Z,67.40
2022-10-26T01:38:17.868Z,67.40
2022-10-26T01:41:12.005Z,67.60
2022-10-26T01:43:44.766Z,67.60
2022-10-26T01:46:15.511Z,67.60
2022-10-26T01:48:44.176Z,67.80
2022-10-26T01:51:13.678Z,67.60
2022-10-26T01:53:46.606Z,67.70
2022-10-26T01:56:21.919Z,67.80
2022-10-26T01:59:05.573Z,67.60
2022-10-26T02:01:55.020Z,67.70
2022-10-26T02:04:36.856Z,67.30
2022-10-26T02:07:35.621Z,67.40
2022-10-26T02:10:16.720Z,67.20
2022-10-26T02:13:25.522Z,67.30
2022-10-26T02:16:04.608Z,67.30
2022-10-26T02:18:34.021Z,67.50
2022-10-26T02:21:09.399Z,67.40
2022-10-26T02:23:38.878Z,67.50
2022-10-26T02:26:09.664Z,67.30
2022-10-26T02:28:41.855Z,67.40
2022-10-26T02:31:10.260Z,67.30
2022-10-26T02:33:44.236Z,67.20
2022-10-26T02:36:16.498Z,67.40
2022-10-26T02:38:44.004Z,67.30
2022-10-26T02:41:12.866Z,67.20
2022-10-26T02:44:02.527Z,67.40
2022-10-26T02:46:29.332Z,67.50
2022-10-26T02:48:56.751Z,67.40
2022-10-26T02:51:39.390Z,67.50
2022-10-26T02:54:45.088Z,67.60
2022-10-26T02:57:31.606Z,67.30
2022-10-26T02:59:58.948Z,67.40
2022-10-26T03:02:26.575Z,67.30
2022-10-26T03:04:54.343Z,67.40
2022-10-26T03:07:22.720Z,67.50
2022-10-26T03:09:49.871Z,67.50
2022-10-26T03:12:16.852Z,67.40
2022-10-26T03:14:43.705Z,67.50
2022-10-26T03:17:10.340Z,67.30
2022-10-26T03:19:36.922Z,67.50
2022-10-26T03:22:03.497Z,67.40
2022-10-26T03:24:30.063Z,67.50
2022-10-26T03:26:59.600Z,67.50
2022-10-26T03:29:29.045Z,67.50
2022-10-26T03:31:55.745Z,67.50
2022-10-26T03:34:22.404Z,67.50
2022-10-26T03:36:49.262Z,67.60
2022-10-26T03:39:15.994Z,67.30
2022-10-26T03:41:42.724Z,67.50
2022-10-26T03:44:09.394Z,67.40
2022-10-26T03:46:35.938Z,67.30
2022-10-26T03:49:04.683Z,67.30
2022-10-26T03:51:31.868Z,67.40
2022-10-26T03:53:58.473Z,67.30
2022-10-26T03:56:25.086Z,67.10
2022-10-26T03:58:51.641Z,67.20
2022-10-26T04:01:18.634Z,67.20
2022-10-26T04:03:45.276Z,67.20
2022-10-26T04:06:11.888Z,67.30
2022-10-26T04:08:38.496Z,67.30
2022-10-26T04:11:05.223Z,67.30
2022-10-26T04:13:32.692Z,67.40
2022-10-26T04:15:59.312Z,67.50
2022-10-26T04:18:25.892Z,67.40
2022-10-26T04:20:52.484Z,67.40
2022-10-26T04:23:19.978Z,67.50
2022-10-26T04:25:47.006Z,67.60
2022-10-26T04:28:14.372Z,67.60
2022-10-26T04:30:40.959Z,67.70
2022-10-26T04:33:07.917Z,67.70
2022-10-26T04:35:34.579Z,67.70
2022-10-26T04:38:03.692Z,67.80
2022-10-26T04:40:41.601Z,67.80
2022-10-26T04:43:08.272Z,67.90
2022-10-26T04:45:34.949Z,67.70
2022-10-26T04:48:16.327Z,67.70
2022-10-26T04:50:43.014Z,67.90
2022-10-26T04:53:10.078Z,67.70
2022-10-26T04:55:37.315Z,67.70
2022-10-26T04:58:06.634Z,67.70
2022-10-26T05:00:34.497Z,67.80
2022-10-26T05:03:03.133Z,67.70
2022-10-26T05:05:31.585Z,67.80
2022-10-26T05:07:59.232Z,67.80
2022-10-26T05:10:26.649Z,67.80
2022-10-26T05:12:58.057Z,67.80
2022-10-26T05:15:27.042Z,68.10
2022-10-26T05:18:05.604Z,67.90
2022-10-26T05:20:34.880Z,68.10
2022-10-26T05:23:04.390Z,68.00
2022-10-26T05:25:37.130Z,68.00
2022-10-26T05:28:05.995Z,68.10
2022-10-26T05:30:32.851Z,67.90
2022-10-26T05:33:03.193Z,67.80
2022-10-26T05:35:30.740Z,68.00
2022-10-26T05:37:57.723Z,67.80
2022-10-26T05:40:24.637Z,67.80
2022-10-26T05:42:53.455Z,67.90
2022-10-26T05:45:20.161Z,68.00
2022-10-26T05:47:47.204Z,67.80
2022-10-26T05:50:14.454Z,68.00
2022-10-26T05:52:44.024Z,68.20
2022-10-26T05:55:13.041Z,68.30
2022-10-26T05:57:41.238Z,68.10
2022-10-26T06:00:11.108Z,68.10
2022-10-26T06:03:09.180Z,68.10
2022-10-26T06:05:55.341Z,67.90
2022-10-26T06:08:24.412Z,68.30
2022-10-26T06:10:51.981Z,68.00
2022-10-26T06:13:18.828Z,67.90
2022-10-26T06:16:07.569Z,68.00
2022-10-26T06:18:47.519Z,67.90
2022-10-26T06:21:28.899Z,67.90
2022-10-26T06:24:08.723Z,68.00
2022-10-26T06:26:59.559Z,68.20
2022-10-26T06:29:55.667Z,68.30
2022-10-26T06:32:24.920Z,67.70
2022-10-26T06:35:01.737Z,68.10
2022-10-26T06:37:31.532Z,68.10
2022-10-26T06:39:58.850Z,68.10
2022-10-26T06:42:25.567Z,68.10
2022-10-26T06:44:52.458Z,67.90
2022-10-26T06:47:31.156Z,67.90
2022-10-26T06:50:07.237Z,68.10
2022-10-26T06:52:58.546Z,68.10
2022-10-26T06:55:27.153Z,67.60
2022-10-26T06:57:54.260Z,67.90
2022-10-26T07:00:23.553Z,67.80
2022-10-26T07:02:50.519Z,67.90
2022-10-26T07:05:17.877Z,67.70
2022-10-26T07:07:46.748Z,67.70
2022-10-26T07:10:14.891Z,67.80
2022-10-26T07:12:41.753Z,67.70
2022-10-26T07:17:48.671Z,67.60
2022-10-26T07:20:17.884Z,68.00
2022-10-26T07:22:44.589Z,67.80
2022-10-26T07:25:12.434Z,67.60
2022-10-26T07:27:39.107Z,67.80
2022-10-26T07:30:06.558Z,67.80
2022-10-26T07:32:33.284Z,67.80
2022-10-26T07:34:59.932Z,67.90
2022-10-26T07:37:26.519Z,67.90
2022-10-26T07:39:53.339Z,67.90
2022-10-26T07:42:19.927Z,67.90
2022-10-26T07:44:46.485Z,68.00
2022-10-26T07:47:13.074Z,67.90
2022-10-26T07:49:40.024Z,67.90
2022-10-26T07:52:06.936Z,68.00
2022-10-26T07:54:33.565Z,68.00
2022-10-26T07:59:43.501Z,68.30
2022-10-26T08:02:10.749Z,68.30
2022-10-26T08:04:37.483Z,68.10
2022-10-26T08:07:05.914Z,68.20
2022-10-26T08:09:32.608Z,68.20
2022-10-26T08:11:59.205Z,68.20
2022-10-26T08:14:25.791Z,68.20
2022-10-26T08:16:52.644Z,68.20
2022-10-26T08:19:19.928Z,68.20
2022-10-26T08:21:46.483Z,68.40
2022-10-26T08:24:13.213Z,68.50
2022-10-26T08:26:39.773Z,68.50
2022-10-26T08:29:06.436Z,68.50
2022-10-26T08:31:33.321Z,68.60
2022-10-26T08:34:00.092Z,68.60
2022-10-26T08:36:28.261Z,68.60
2022-10-26T08:38:54.937Z,68.80
2022-10-26T08:41:57.495Z,68.40
2022-10-26T08:44:38.761Z,68.90
2022-10-26T08:47:19.575Z,68.60
2022-10-26T08:49:55.657Z,69.20
2022-10-26T08:52:29.196Z,69.10
2022-10-26T08:55:00.123Z,69.30
2022-10-26T08:57:41.218Z,69.20
2022-10-26T09:00:25.962Z,69.40
2022-10-26T09:02:56.102Z,69.00
2022-10-26T09:05:33.491Z,69.10
2022-10-26T09:08:17.381Z,69.30
2022-10-26T09:11:00.546Z,69.50
2022-10-26T09:13:45.274Z,69.60
2022-10-26T09:16:35.564Z,69.30
2022-10-26T09:19:21.353Z,69.40
2022-10-26T09:22:07.030Z,69.40
2022-10-26T09:24:39.104Z,69.60
2022-10-26T09:27:24.039Z,69.60
2022-10-26T09:29:52.261Z,69.70
2022-10-26T09:32:21.544Z,69.40
2022-10-26T09:34:55.852Z,69.30
2022-10-26T09:37:48.440Z,69.90
2022-10-26T09:40:27.698Z,69.60
2022-10-26T09:42:58.392Z,69.90
2022-10-26T09:45:32.754Z,70.00
2022-10-26T09:48:36.827Z,70.50
2022-10-26T09:51:11.525Z,69.60
2022-10-26T09:53:38.075Z,70.20
2022-10-26T09:56:08.537Z,69.10
2022-10-26T09:58:42.641Z,70.00
2022-10-26T10:01:27.662Z,70.20
2022-10-26T10:04:29.932Z,70.10
2022-10-26T10:07:02.310Z,69.40
2022-10-26T10:09:28.928Z,69.90
2022-10-26T10:11:58.869Z,69.80
2022-10-26T10:14:25.438Z,70.20
2022-10-26T10:16:57.048Z,70.10
2022-10-26T10:19:32.425Z,70.20
2022-10-26T10:22:01.092Z,70.20
2022-10-26T10:24:32.596Z,70.00
2022-10-26T10:27:04.090Z,69.90
2022-10-26T10:29:40.150Z,69.90
2022-10-26T10:32:14.142Z,69.80
2022-10-26T10:34:40.721Z,69.60
2022-10-26T10:37:19.921Z,69.40
2022-10-26T10:39:47.855Z,69.40
2022-10-26T10:42:18.240Z,69.40
2022-10-26T10:44:47.145Z,69.40
2022-10-26T10:47:35.480Z,69.30
2022-10-26T10:50:17.191Z,69.00
2022-10-26T10:52:43.807Z,69.00
2022-10-26T10:55:20.546Z,68.80
2022-10-26T10:58:04.732Z,69.00
2022-10-26T11:00:37.868Z,69.00
2022-10-26T11:03:16.693Z,68.90
2022-10-26T11:06:05.941Z,69.20
2022-10-26T11:08:35.560Z,69.20
2022-10-26T11:11:15.530Z,69.40
2022-10-26T11:14:04.721Z,69.50
2022-10-26T11:16:37.017Z,69.30
2022-10-26T11:19:22.960Z,69.80
2022-10-26T11:21:55.704Z,70.00
2022-10-26T11:24:31.058Z,70.20
2022-10-26T11:27:23.828Z,70.30
2022-10-26T11:30:06.178Z,70.40
2022-10-26T11:32:53.090Z,70.30
2022-10-26T11:35:38.302Z,70.30
2022-10-26T11:38:28.191Z,70.30
2022-10-26T11:41:18.469Z,70.40
2022-10-26T11:43:50.653Z,70.40
2022-10-26T11:46:34.476Z,70.40
2022-10-26T11:49:16.155Z,70.40
2022-10-26T11:52:01.664Z,70.40
2022-10-26T11:54:42.564Z,70.30
2022-10-26T11:57:11.120Z,70.30
2022-10-26T11:59:45.401Z,70.30
2022-10-26T12:02:16.400Z,70.20
2022-10-26T12:04:45.957Z,70.10
2022-10-26T12:07:33.097Z,70.10
2022-10-26T12:10:01.752Z,70.10
2022-10-26T12:13:04.783Z,70.00
2022-10-26T12:16:02.458Z,70.00
2022-10-26T12:18:58.814Z,70.00
2022-10-26T12:21:28.610Z,70.20
2022-10-26T12:24:00.600Z,70.10
2022-10-26T12:26:27.128Z,69.90
2022-10-26T12:29:02.778Z,69.90
2022-10-26T12:31:32.803Z,69.80
2022-10-26T12:34:00.795Z,69.70
2022-10-26T12:36:50.586Z,69.80
2022-10-26T12:39:26.802Z,69.60
2022-10-26T12:42:28.953Z,69.70
2022-10-26T12:44:58.455Z,69.60
2022-10-26T12:47:28.252Z,69.60
2022-10-26T12:50:18.904Z,69.60
2022-10-26T12:52:56.827Z,69.40
2022-10-26T12:55:29.208Z,69.40
2022-10-26T12:58:07.978Z,69.20
2022-10-26T13:00:41.614Z,69.00
2022-10-26T13:03:11.315Z,69.30
2022-10-26T13:06:02.626Z,69.10
2022-10-26T13:08:49.723Z,69.10
2022-10-26T13:11:32.108Z,68.90
2022-10-26T13:14:03.021Z,69.00
2022-10-26T13:16:30.271Z,68.80
2022-10-26T13:18:57.829Z,68.80
2022-10-26T13:21:26.081Z,69.10
2022-10-26T13:23:58.429Z,68.70
2022-10-26T13:26:26.898Z,68.20
2022-10-26T13:29:02.356Z,68.80
2022-10-26T13:31:28.936Z,68.20
2022-10-26T13:34:04.830Z,68.00
2022-10-26T13:36:38.079Z,68.20
2022-10-26T13:39:21.154Z,67.70
2022-10-26T13:41:51.184Z,67.50
2022-10-26T13:44:35.318Z,67.50
2022-10-26T13:47:10.696Z,67.60
2022-10-26T13:49:41.058Z,67.60
2022-10-26T13:52:28.840Z,67.40
2022-10-26T13:54:59.028Z,67.10
2022-10-26T13:57:42.483Z,67.20
2022-10-26T14:00:23.440Z,66.90
2022-10-26T14:02:50.411Z,66.70
2022-10-26T14:05:18.829Z,66.80
2022-10-26T14:07:57.028Z,66.60
2022-10-26T14:10:28.658Z,66.30
2022-10-26T14:12:56.256Z,66.00
2022-10-26T14:15:32.191Z,66.40
2022-10-26T14:18:01.194Z,66.00
2022-10-26T14:20:29.832Z,66.10
2022-10-26T14:22:56.755Z,65.90
2022-10-26T14:25:42.400Z,66.10
2022-10-26T14:28:45.756Z,66.10
2022-10-26T14:31:27.599Z,66.60
2022-10-26T14:33:55.178Z,66.30
2022-10-26T14:36:26.870Z,66.30
2022-10-26T14:38:59.312Z,66.40
2022-10-26T14:41:27.079Z,66.30
2022-10-26T14:43:57.060Z,66.40
2022-10-26T14:46:23.863Z,66.60
2022-10-26T14:49:02.250Z,66.70
2022-10-26T14:51:36.939Z,66.80
2022-10-26T14:54:04.255Z,66.80
2022-10-26T14:56:40.299Z,67.30
2022-10-26T14:59:21.870Z,66.90
2022-10-26T15:01:57.173Z,66.90
2022-10-26T15:05:03.833Z,66.90
2022-10-26T15:07:39.947Z,67.00
2022-10-26T15:10:26.759Z,66.80
2022-10-26T15:12:53.419Z,66.70
2022-10-26T15:17:56.594Z,66.70
2022-10-26T15:20:25.656Z,66.70
2022-10-26T15:22:57.714Z,66.70
2022-10-26T15:25:27.837Z,66.70
2022-10-26T15:28:13.221Z,66.80
2022-10-26T15:30:39.813Z,66.80
2022-10-26T15:33:24.013Z,66.70
2022-10-26T15:35:50.644Z,66.80
2022-10-26T15:38:17.224Z,66.80
2022-10-26T15:40:44.300Z,66.90
2022-10-26T15:43:12.344Z,66.90
2022-10-26T15:45:52.469Z,66.90
2022-10-26T15:48:25.730Z,66.90
2022-10-26T15:50:52.825Z,66.90
2022-10-26T15:53:22.788Z,66.80
2022-10-26T15:55:52.452Z,66.90
2022-10-26T15:58:19.245Z,66.90
2022-10-26T16:00:45.895Z,66.80
2022-10-26T16:03:16.793Z,66.70
2022-10-26T16:05:50.913Z,66.80
2022-10-26T16:08:18.566Z,66.80
2022-10-26T16:10:46.106Z,66.70
2022-10-26T16:13:14.305Z,66.70
2022-10-26T16:15:41.600Z,66.70
2022-10-26T16:18:08.355Z,66.70
2022-10-26T16:20:35.348Z,66.70
2022-10-26T16:23:06.566Z,66.70
2022-10-26T16:25:39.939Z,66.70
2022-10-26T16:28:06.617Z,66.70
2022-10-26T16:30:33.582Z,66.70
2022-10-26T16:33:00.218Z,66.70
2022-10-26T16:35:26.816Z,66.70
2022-10-26T16:37:53.604Z,66.70
2022-10-26T16:40:20.242Z,66.60
2022-10-26T16:42:47.066Z,66.60
2022-10-26T16:45:15.103Z,66.60
2022-10-26T16:47:41.993Z,66.90
2022-10-26T16:50:10.851Z,66.90
2022-10-26T16:52:38.499Z,66.80
2022-10-26T16:55:08.691Z,66.80
2022-10-26T16:57:36.603Z,66.70
2022-10-26T17:00:05.994Z,66.70
2022-10-26T17:02:32.968Z,66.70
2022-10-26T17:05:02.693Z,66.70
2022-10-26T17:07:32.641Z,66.70
2022-10-26T17:09:59.256Z,66.70
2022-10-26T17:14:53.337Z,66.70
2022-10-26T17:17:19.928Z,66.70
2022-10-26T17:19:46.838Z,66.80
2022-10-26T17:22:13.448Z,66.80
2022-10-26T17:24:40.092Z,66.80
2022-10-26T17:27:09.802Z,66.80
2022-10-26T17:29:36.397Z,66.90
2022-10-26T17:32:03.025Z,66.80
2022-10-26T17:34:29.585Z,66.90
2022-10-26T17:36:56.304Z,66.90
2022-10-26T17:39:22.913Z,66.90
2022-10-26T17:41:49.924Z,67.00
2022-10-26T17:44:16.739Z,66.90
2022-10-26T17:46:43.586Z,67.00
2022-10-26T17:49:10.183Z,67.00
2022-10-26T17:51:36.747Z,67.10
2022-10-26T17:54:03.913Z,67.10
2022-10-26T17:56:32.801Z,67.20
2022-10-26T17:59:06.018Z,67.30
2022-10-26T18:01:33.293Z,67.40
2022-10-26T18:04:01.080Z,67.40
2022-10-26T18:06:28.247Z,67.50
2022-10-26T18:08:57.254Z,67.50
2022-10-26T18:11:27.161Z,67.70
2022-10-26T18:13:55.625Z,67.70
2022-10-26T18:16:23.305Z,67.80
2022-10-26T18:18:58.697Z,67.90
2022-10-26T18:21:26.312Z,68.00
2022-10-26T18:23:53.584Z,67.90
2022-10-26T18:26:23.137Z,68.00
2022-10-26T18:28:49.758Z,68.10
2022-10-26T18:31:19.951Z,68.00
2022-10-26T18:33:46.737Z,68.20
2022-10-26T18:36:17.826Z,68.00
2022-10-26T18:38:46.572Z,68.10
2022-10-26T18:41:16.145Z,68.10
2022-10-26T18:43:44.662Z,67.90
2022-10-26T18:46:19.165Z,68.00
2022-10-26T18:48:48.490Z,68.10
2022-10-26T18:51:18.005Z,68.00
2022-10-26T18:53:45.591Z,68.00
2022-10-26T18:56:15.200Z,68.00
2022-10-26T18:58:44.016Z,68.10
2022-10-26T19:01:13.306Z,68.10
2022-10-26T19:03:40.605Z,68.10
2022-10-26T19:06:09.061Z,68.00
2022-10-26T19:08:35.761Z,68.00
2022-10-26T19:11:05.250Z,68.00
2022-10-26T19:13:32.354Z,68.20
2022-10-26T19:16:17.429Z,68.10
2022-10-26T19:18:55.919Z,68.20
2022-10-26T19:21:24.769Z,68.20
2022-10-26T19:23:53.767Z,68.30
2022-10-26T19:26:22.968Z,68.30
2022-10-26T19:29:01.073Z,68.30
2022-10-26T19:31:32.225Z,68.50
2022-10-26T19:34:02.744Z,68.50
2022-10-26T19:36:29.801Z,68.70
2022-10-26T19:38:57.772Z,68.60
2022-10-26T19:41:26.687Z,68.80
2022-10-26T19:43:54.994Z,68.90
2022-10-26T19:46:24.628Z,68.90
2022-10-26T19:48:54.218Z,69.10
2022-10-26T19:51:21.565Z,69.00
2022-10-26T19:53:48.526Z,69.00
2022-10-26T19:56:15.951Z,69.00
2022-10-26T19:58:44.348Z,69.00
2022-10-26T20:01:12.331Z,69.10
2022-10-26T20:03:39.423Z,69.10
2022-10-26T20:06:11.285Z,69.00
2022-10-26T20:08:38.749Z,69.00
2022-10-26T20:11:09.048Z,68.90
2022-10-26T20:13:39.597Z,68.90
2022-10-26T20:16:08.049Z,69.00
2022-10-26T20:18:35.247Z,68.90
2022-10-26T20:21:06.073Z,68.80
2022-10-26T20:23:32.657Z,68.90
2022-10-26T20:26:00.350Z,68.80
2022-10-26T20:28:27.133Z,68.80
2022-10-26T20:30:53.884Z,68.80
2022-10-26T20:33:20.745Z,68.90
2022-10-26T20:35:48.381Z,68.80
2022-10-26T20:38:19.716Z,68.80
2022-10-26T20:40:56.700Z,68.90
2022-10-26T20:43:23.874Z,68.90
2022-10-26T20:45:51.402Z,68.80
2022-10-26T20:48:18.976Z,68.80
2022-10-26T20:51:03.868Z,68.80
2022-10-26T20:53:42.922Z,69.00
2022-10-26T20:56:24.484Z,69.00
2022-10-26T20:58:56.109Z,69.10
2022-10-26T21:01:34.801Z,69.10
2022-10-26T21:04:03.613Z,69.30
2022-10-26T21:06:32.297Z,69.20
2022-10-26T21:08:58.978Z,69.10
2022-10-26T21:11:26.231Z,69.20
2022-10-26T21:13:54.397Z,69.30
2022-10-26T21:18:47.958Z,69.40
2022-10-26T21:21:14.688Z,69.30
2022-10-26T21:23:41.796Z,69.40
2022-10-26T21:26:09.231Z,69.40
2022-10-26T21:28:38.188Z,69.40
2022-10-26T21:31:11.483Z,69.50
2022-10-26T21:33:38.587Z,69.70
2022-10-26T21:36:07.542Z,69.50
2022-10-26T21:38:34.344Z,69.50
2022-10-26T21:41:07.607Z,69.50
2022-10-26T21:43:35.596Z,69.80
2022-10-26T21:46:03.733Z,69.60
2022-10-26T21:48:31.693Z,69.50
2022-10-26T21:51:00.372Z,69.50
2022-10-26T21:53:27.187Z,69.50
2022-10-26T21:56:16.626Z,69.50
2022-10-26T21:58:43.324Z,69.20
2022-10-26T22:01:22.887Z,69.30
2022-10-26T22:03:49.654Z,69.60
2022-10-26T22:08:50.179Z,69.50
2022-10-26T22:11:19.740Z,69.50
2022-10-26T22:13:47.701Z,69.60
2022-10-26T22:16:20.933Z,69.50
2022-10-26T22:18:55.476Z,69.70
2022-10-26T22:21:25.320Z,69.70
2022-10-26T22:23:52.064Z,69.40
2022-10-26T22:26:23.314Z,69.30
2022-10-26T22:28:55.315Z,69.40
2022-10-26T22:31:25.382Z,69.60
2022-10-26T22:34:06.595Z,69.50
2022-10-26T22:36:35.105Z,69.80
2022-10-26T22:39:01.872Z,69.50
2022-10-26T22:41:28.583Z,69.50
2022-10-26T22:43:55.257Z,69.40
2022-10-26T22:46:27.904Z,69.50
2022-10-26T22:48:56.517Z,69.60
2022-10-26T22:51:25.127Z,69.20
2022-10-26T22:53:56.309Z,69.30
2022-10-26T22:56:24.355Z,69.30
2022-10-26T22:58:55.185Z,69.00
2022-10-26T23:01:25.081Z,69.00
2022-10-26T23:03:53.800Z,69.00
2022-10-26T23:06:21.063Z,69.00
2022-10-26T23:08:47.769Z,69.00
2022-10-26T23:11:17.061Z,68.90
2022-10-26T23:13:44.364Z,68.90
2022-10-26T23:16:17.844Z,69.00
2022-10-26T23:18:44.588Z,69.10
2022-10-26T23:21:12.361Z,68.80
2022-10-26T23:23:40.012Z,68.90
2022-10-26T23:26:09.299Z,68.90
2022-10-26T23:28:36.504Z,68.80
2022-10-26T23:31:03.360Z,68.80
2022-10-26T23:33:30.262Z,68.90
2022-10-26T23:35:58.019Z,68.80
2022-10-26T23:38:25.577Z,68.90
2022-10-26T23:40:59.179Z,68.80
2022-10-26T23:43:27.305Z,68.90
2022-10-26T23:45:55.103Z,68.80
2022-10-26T23:48:22.226Z,68.80
2022-10-26T23:50:50.529Z,68.80
2022-10-26T23:53:19.522Z,68.80
2022-10-26T23:55:47.350Z,68.80
2022-10-26T23:58:15.021Z,68.80
